createdAt,value
2018-06-02T00:01:54.905Z,81.30
2018-06-02T00:04:21.734Z,81.20
2018-06-02T00:06:47.986Z,81.60
2018-06-02T00:09:14.246Z,82.10
2018-06-02T00:11:40.230Z,82.40
2018-06-02T00:14:06.489Z,82.90
2018-06-02T00:16:33.216Z,83.00
2018-06-02T00:19:00.038Z,83.00
2018-06-02T00:21:25.983Z,83.00
2018-06-02T00:23:52.040Z,82.90
2018-06-02T00:26:18.078Z,83.30
2018-06-02T00:28:44.030Z,83.40
2018-06-02T00:31:10.858Z,83.80
2018-06-02T00:33:36.779Z,83.50
2018-06-02T00:36:03.092Z,83.80
2018-06-02T00:38:29.395Z,83.60
2018-06-02T00:40:55.413Z,83.00
2018-06-02T00:43:21.386Z,82.50
2018-06-02T00:45:47.418Z,82.10
2018-06-02T00:48:13.359Z,81.80
2018-06-02T00:50:39.304Z,81.50
2018-06-02T00:53:05.246Z,81.30
2018-06-02T00:55:31.238Z,81.20
2018-06-02T00:57:57.174Z,80.80
2018-06-02T01:00:23.108Z,80.90
2018-06-02T01:02:49.071Z,80.50
2018-06-02T01:05:15.031Z,80.70
2018-06-02T01:07:40.984Z,80.50
2018-06-02T01:10:07.746Z,80.30
2018-06-02T01:12:33.746Z,80.30
2018-06-02T01:15:00.549Z,80.70
2018-06-02T01:17:26.591Z,80.60
2018-06-02T01:19:52.573Z,80.50
2018-06-02T01:22:18.548Z,80.60
2018-06-02T01:24:45.322Z,80.60
2018-06-02T01:27:11.310Z,80.70
2018-06-02T01:29:38.079Z,80.40
2018-06-02T01:32:04.352Z,80.40
2018-06-02T01:34:30.410Z,80.50
2018-06-02T01:36:56.471Z,80.50
2018-06-02T01:39:22.479Z,80.40
2018-06-02T01:41:48.622Z,80.50
2018-06-02T01:44:14.628Z,80.80
2018-06-02T01:46:40.620Z,81.00
2018-06-02T01:49:08.094Z,81.00
2018-06-02T01:51:34.055Z,81.00
2018-06-02T01:54:00.395Z,80.90
2018-06-02T01:56:26.639Z,81.10
2018-06-02T01:58:52.653Z,81.70
2018-06-02T02:01:18.966Z,81.00
2018-06-02T02:03:45.988Z,81.00
2018-06-02T02:06:12.157Z,81.00
2018-06-02T02:08:38.713Z,81.10
2018-06-02T02:11:05.052Z,81.20
2018-06-02T02:13:32.037Z,81.40
2018-06-02T02:15:58.574Z,81.40
2018-06-02T02:18:25.063Z,81.30
2018-06-02T02:20:51.349Z,81.50
2018-06-02T02:23:18.210Z,81.70
2018-06-02T02:25:45.167Z,82.10
2018-06-02T02:28:12.469Z,82.30
2018-06-02T02:30:38.492Z,82.30
2018-06-02T02:33:04.650Z,82.60
2018-06-02T02:35:31.111Z,82.90
2018-06-02T02:37:57.210Z,83.40
2018-06-02T02:40:23.421Z,83.50
2018-06-02T02:42:49.871Z,83.90
2018-06-02T02:45:15.930Z,84.10
2018-06-02T02:47:42.981Z,84.60
2018-06-02T02:50:08.994Z,84.80
2018-06-02T02:52:37.638Z,84.70
2018-06-02T02:55:03.603Z,84.70
2018-06-02T02:57:35.775Z,84.60
2018-06-02T03:00:01.783Z,84.90
2018-06-02T03:02:27.795Z,85.30
2018-06-02T03:04:54.036Z,85.60
2018-06-02T03:07:20.800Z,86.00
2018-06-02T03:09:46.794Z,86.10
2018-06-02T03:12:13.800Z,87.10
2018-06-02T03:14:40.824Z,87.20
2018-06-02T03:17:08.538Z,87.40
2018-06-02T03:19:35.275Z,87.10
2018-06-02T03:22:02.170Z,87.00
2018-06-02T03:24:28.988Z,87.00
2018-06-02T03:26:55.138Z,86.70
2018-06-02T03:29:21.890Z,86.20
2018-06-02T03:31:48.573Z,86.00
2018-06-02T03:34:16.575Z,85.80
2018-06-02T03:36:44.174Z,85.60
2018-06-02T03:39:11.113Z,85.10
2018-06-02T03:41:37.913Z,85.00
2018-06-02T03:44:06.200Z,85.00
2018-06-02T03:46:32.635Z,85.00
2018-06-02T03:48:59.744Z,84.80
2018-06-02T03:51:26.720Z,84.90
2018-06-02T03:53:54.418Z,84.80
2018-06-02T03:56:21.937Z,84.90
2018-06-02T03:58:49.571Z,85.10
2018-06-02T04:01:16.286Z,85.10
2018-06-02T04:03:42.363Z,85.30
2018-06-02T04:06:10.070Z,85.20
2018-06-02T04:08:36.031Z,85.10
2018-06-02T04:11:03.543Z,85.20
2018-06-02T04:13:30.371Z,85.30
2018-06-02T04:15:56.573Z,85.40
2018-06-02T04:18:23.543Z,85.60
2018-06-02T04:20:51.305Z,85.80
2018-06-02T04:23:17.394Z,85.80
2018-06-02T04:25:44.168Z,85.80
2018-06-02T04:28:11.328Z,85.90
2018-06-02T04:30:37.674Z,85.90
2018-06-02T04:33:05.432Z,85.90
2018-06-02T04:35:31.826Z,86.00
2018-06-02T04:37:58.416Z,86.30
2018-06-02T04:40:24.739Z,85.90
2018-06-02T04:42:51.058Z,86.10
2018-06-02T04:45:18.742Z,87.60
2018-06-02T04:47:45.355Z,87.60
2018-06-02T04:50:13.043Z,86.70
2018-06-02T04:52:39.898Z,86.60
2018-06-02T04:55:07.060Z,86.50
2018-06-02T04:57:34.716Z,86.10
2018-06-02T05:00:01.107Z,86.10
2018-06-02T05:02:28.136Z,86.70
2018-06-02T05:04:55.846Z,86.40
2018-06-02T05:07:22.268Z,86.50
2018-06-02T05:09:49.201Z,86.40
2018-06-02T05:12:27.456Z,85.40
2018-06-02T05:14:53.966Z,85.20
2018-06-02T05:17:20.781Z,85.20
2018-06-02T05:19:49.081Z,84.90
2018-06-02T05:22:15.790Z,84.80
2018-06-02T05:24:42.199Z,85.80
2018-06-02T05:27:09.120Z,87.40
2018-06-02T05:29:37.811Z,88.40
2018-06-02T05:32:04.939Z,88.40
2018-06-02T05:34:31.179Z,87.90
2018-06-02T05:36:57.291Z,86.10
2018-06-02T05:39:38.262Z,86.40
2018-06-02T05:42:04.650Z,86.20
2018-06-02T05:44:30.789Z,86.80
2018-06-02T05:46:56.850Z,88.40
2018-06-02T05:49:23.915Z,88.20
2018-06-02T05:51:50.884Z,87.50
2018-06-02T05:54:18.261Z,87.70
2018-06-02T05:56:47.402Z,87.70
2018-06-02T05:59:14.271Z,86.00
2018-06-02T06:01:42.164Z,86.00
2018-06-02T06:04:10.606Z,86.30
2018-06-02T06:06:39.283Z,86.20
2018-06-02T06:09:05.947Z,86.60
2018-06-02T06:11:31.928Z,86.50
2018-06-02T06:13:58.168Z,86.40
2018-06-02T06:16:25.200Z,86.90
2018-06-02T06:18:52.082Z,87.90
2018-06-02T06:21:18.523Z,89.20
2018-06-02T06:23:45.978Z,87.40
2018-06-02T06:26:13.922Z,88.00
2018-06-02T06:28:42.695Z,88.10
2018-06-02T06:31:09.478Z,88.10
2018-06-02T06:33:37.766Z,86.90
2018-06-02T06:36:04.088Z,89.00
2018-06-02T06:38:31.335Z,88.20
2018-06-02T06:40:58.038Z,90.10
2018-06-02T06:43:27.477Z,89.70
2018-06-02T06:45:53.590Z,87.20
2018-06-02T06:48:20.784Z,87.80
2018-06-02T06:50:48.236Z,87.70
2018-06-02T06:53:16.594Z,89.00
2018-06-02T06:55:42.794Z,87.30
2018-06-02T06:58:09.555Z,86.90
2018-06-02T07:00:37.106Z,87.20
2018-06-02T07:03:03.486Z,87.20
2018-06-02T07:05:29.772Z,85.80
2018-06-02T07:07:56.603Z,86.90
2018-06-02T07:10:23.426Z,86.80
2018-06-02T07:12:50.359Z,85.60
2018-06-02T07:15:16.397Z,86.70
2018-06-02T07:17:43.300Z,84.70
2018-06-02T07:20:10.497Z,83.90
2018-06-02T07:22:36.557Z,83.90
2018-06-02T07:25:02.837Z,84.30
2018-06-02T07:27:28.967Z,83.50
2018-06-02T07:29:57.318Z,82.10
2018-06-02T07:32:24.104Z,81.80
2018-06-02T07:34:51.271Z,81.80
2018-06-02T07:37:17.469Z,80.90
2018-06-02T07:39:43.407Z,80.50
2018-06-02T07:42:09.366Z,81.60
2018-06-02T07:44:35.298Z,84.40
2018-06-02T07:47:01.279Z,81.80
2018-06-02T07:49:27.191Z,80.60
2018-06-02T07:51:53.117Z,80.70
2018-06-02T07:54:19.037Z,83.10
2018-06-02T07:56:44.962Z,83.10
2018-06-02T07:59:10.889Z,83.90
2018-06-02T08:01:36.836Z,83.00
2018-06-02T08:04:02.831Z,82.00
2018-06-02T08:06:28.789Z,78.80
2018-06-02T08:08:54.738Z,78.60
2018-06-02T08:11:20.622Z,79.80
2018-06-02T08:13:46.552Z,83.80
2018-06-02T08:16:12.455Z,78.60
2018-06-02T08:18:38.430Z,78.30
2018-06-02T08:21:04.318Z,80.10
2018-06-02T08:23:30.272Z,81.50
2018-06-02T08:25:56.172Z,78.90
2018-06-02T08:28:22.114Z,78.10
2018-06-02T08:30:48.001Z,78.90
2018-06-02T08:33:13.919Z,79.60
2018-06-02T08:35:39.819Z,79.30
2018-06-02T08:38:05.774Z,77.90
2018-06-02T08:40:32.459Z,77.30
2018-06-02T08:42:58.374Z,77.30
2018-06-02T08:45:24.303Z,78.90
2018-06-02T08:47:50.214Z,78.40
2018-06-02T08:50:16.126Z,76.10
2018-06-02T08:52:42.018Z,78.20
2018-06-02T08:55:08.682Z,77.10
2018-06-02T08:57:39.090Z,77.00
2018-06-02T09:00:05.213Z,76.60
2018-06-02T09:02:31.862Z,76.10
2018-06-02T09:04:57.818Z,76.10
2018-06-02T09:07:23.735Z,74.70
2018-06-02T09:09:49.674Z,75.10
2018-06-02T09:12:15.654Z,76.10
2018-06-02T09:14:41.605Z,76.40
2018-06-02T09:17:07.559Z,77.40
2018-06-02T09:19:35.252Z,79.60
2018-06-02T09:22:01.709Z,74.50
2018-06-02T09:24:27.622Z,73.90
2018-06-02T09:26:53.586Z,73.00
2018-06-02T09:29:20.146Z,72.60
2018-06-02T09:31:46.245Z,70.90
2018-06-02T09:34:12.152Z,73.20
2018-06-02T09:36:38.060Z,75.50
2018-06-02T09:39:03.968Z,68.70
2018-06-02T09:41:29.914Z,69.00
2018-06-02T09:43:55.818Z,69.40
2018-06-02T09:46:21.733Z,69.70
2018-06-02T09:48:47.670Z,71.30
2018-06-02T09:51:13.584Z,70.90
2018-06-02T09:53:39.539Z,69.80
2018-06-02T09:56:05.449Z,69.00
2018-06-02T09:58:31.380Z,69.10
2018-06-02T10:00:57.327Z,70.60
2018-06-02T10:03:24.906Z,68.40
2018-06-02T10:05:50.836Z,68.10
2018-06-02T10:08:16.764Z,66.50
2018-06-02T10:10:42.673Z,66.00
2018-06-02T10:13:08.648Z,65.00
2018-06-02T10:15:34.550Z,67.80
2018-06-02T10:18:00.463Z,68.00
2018-06-02T10:20:26.358Z,66.60
2018-06-02T10:22:52.300Z,66.60
2018-06-02T10:25:18.201Z,68.40
2018-06-02T10:27:44.125Z,64.50
2018-06-02T10:30:11.158Z,64.80
2018-06-02T10:32:37.122Z,65.50
2018-06-02T10:35:03.050Z,65.60
2018-06-02T10:37:28.963Z,66.60
2018-06-02T10:39:54.879Z,64.90
2018-06-02T10:42:20.838Z,65.70
2018-06-02T10:44:46.798Z,65.90
2018-06-02T10:47:12.693Z,67.60
2018-06-02T10:49:38.627Z,67.80
2018-06-02T10:52:05.271Z,67.60
2018-06-02T10:54:31.178Z,67.50
2018-06-02T10:56:57.837Z,64.80
2018-06-02T10:59:23.744Z,64.80
2018-06-02T11:01:50.405Z,63.30
2018-06-02T11:04:16.322Z,63.10
2018-06-02T11:06:42.272Z,65.20
2018-06-02T11:09:08.225Z,64.90
2018-06-02T11:11:34.159Z,64.30
2018-06-02T11:14:00.071Z,64.50
2018-06-02T11:16:25.994Z,61.10
2018-06-02T11:18:51.914Z,60.10
2018-06-02T11:21:17.833Z,61.00
2018-06-02T11:23:43.735Z,65.00
2018-06-02T11:26:09.657Z,62.70
2018-06-02T11:28:35.588Z,64.40
2018-06-02T11:31:01.514Z,66.50
2018-06-02T11:33:27.413Z,63.20
2018-06-02T11:35:54.031Z,63.30
2018-06-02T11:38:20.171Z,64.90
2018-06-02T11:40:46.938Z,65.40
2018-06-02T11:43:12.924Z,65.30
2018-06-02T11:45:38.863Z,59.30
2018-06-02T11:48:04.865Z,61.20
2018-06-02T11:50:30.946Z,56.50
2018-06-02T11:52:59.195Z,55.70
2018-06-02T11:55:25.324Z,56.60
2018-06-02T11:57:52.857Z,56.90
2018-06-02T12:00:19.813Z,60.40
2018-06-02T12:02:45.791Z,59.70
2018-06-02T12:05:11.750Z,57.40
2018-06-02T12:07:37.789Z,57.60
2018-06-02T12:10:03.752Z,58.70
2018-06-02T12:12:29.780Z,57.50
2018-06-02T12:14:55.976Z,55.60
2018-06-02T12:17:22.031Z,58.80
2018-06-02T12:19:48.042Z,56.90
2018-06-02T12:22:14.289Z,55.30
2018-06-02T12:24:40.270Z,55.30
2018-06-02T12:27:06.225Z,56.20
2018-06-02T12:29:32.204Z,58.20
2018-06-02T12:31:58.129Z,56.20
2018-06-02T12:34:24.052Z,53.80
2018-06-02T12:36:49.958Z,57.70
2018-06-02T12:39:15.871Z,57.30
2018-06-02T12:41:41.855Z,56.20
2018-06-02T12:44:08.545Z,56.50
2018-06-02T12:46:34.527Z,56.50
2018-06-02T12:49:00.495Z,56.60
2018-06-02T12:51:26.442Z,53.40
2018-06-02T12:53:52.384Z,52.40
2018-06-02T12:56:18.610Z,52.40
2018-06-02T12:58:44.846Z,54.30
2018-06-02T13:01:11.966Z,55.50
2018-06-02T13:03:41.806Z,54.40
2018-06-02T13:06:08.988Z,54.30
2018-06-02T13:08:36.899Z,55.20
2018-06-02T13:11:04.895Z,54.30
2018-06-02T13:13:32.496Z,50.80
2018-06-02T13:15:58.419Z,50.80
2018-06-02T13:18:24.383Z,51.60
2018-06-02T13:20:51.054Z,51.70
2018-06-02T13:23:16.948Z,51.70
2018-06-02T13:25:43.603Z,51.70
2018-06-02T13:28:09.509Z,51.80
2018-06-02T13:30:36.150Z,52.00
2018-06-02T13:33:02.811Z,53.00
2018-06-02T13:35:28.790Z,53.00
2018-06-02T13:37:54.711Z,50.60
2018-06-02T13:40:20.667Z,50.90
2018-06-02T13:42:46.591Z,50.00
2018-06-02T13:45:12.566Z,53.00
2018-06-02T13:47:38.470Z,50.50
2018-06-02T13:50:04.381Z,50.10
2018-06-02T13:52:30.344Z,51.00
2018-06-02T13:54:56.260Z,50.70
2018-06-02T13:57:22.207Z,51.10
2018-06-02T13:59:48.125Z,49.60
2018-06-02T14:02:14.065Z,50.20
2018-06-02T14:04:39.961Z,52.50
2018-06-02T14:07:06.618Z,51.70
2018-06-02T14:09:32.537Z,51.70
2018-06-02T14:11:58.472Z,49.40
2018-06-02T14:14:24.431Z,49.70
2018-06-02T14:16:50.339Z,50.80
2018-06-02T14:19:16.291Z,50.30
2018-06-02T16:59:24.308Z,51.90
2018-06-02T17:10:52.181Z,53.10
2018-06-02T17:13:19.339Z,52.80
2018-06-02T17:15:49.646Z,54.10
2018-06-02T17:18:20.454Z,53.20
2018-06-02T17:20:48.632Z,54.00
2018-06-02T17:23:16.119Z,53.00
2018-06-02T17:25:43.362Z,53.40
2018-06-02T17:28:12.228Z,54.40
2018-06-02T17:30:39.751Z,54.50
2018-06-02T17:33:06.481Z,54.30
2018-06-02T17:35:34.998Z,54.80
2018-06-02T17:38:02.748Z,54.60
2018-06-02T17:40:29.254Z,54.60
2018-06-02T17:42:55.328Z,54.40
2018-06-02T17:45:21.688Z,54.90
2018-06-02T17:47:47.648Z,54.30
2018-06-02T17:50:13.559Z,54.70
2018-06-02T17:52:39.457Z,55.00
2018-06-02T17:55:05.414Z,55.00
2018-06-02T17:57:31.324Z,54.80
2018-06-02T17:59:57.274Z,55.70
2018-06-02T18:02:23.200Z,55.20
2018-06-02T18:04:49.181Z,54.70
2018-06-02T18:07:16.716Z,55.20
2018-06-02T18:09:43.410Z,54.50
2018-06-02T18:12:09.379Z,54.50
2018-06-02T18:14:37.807Z,54.60
2018-06-02T18:17:06.118Z,54.60
2018-06-02T18:19:32.101Z,54.80
2018-06-02T18:21:58.382Z,55.30
2018-06-02T18:24:25.869Z,55.10
2018-06-02T18:26:52.648Z,55.10
2018-06-02T18:29:19.669Z,55.40
2018-06-02T18:31:46.493Z,55.50
2018-06-02T18:34:14.217Z,56.30
2018-06-02T18:36:40.176Z,55.70
2018-06-02T18:39:08.723Z,55.40
2018-06-02T18:41:35.770Z,55.40
2018-06-02T18:44:01.720Z,55.30
2018-06-02T18:46:29.140Z,55.80
2018-06-02T18:48:56.758Z,56.40
2018-06-02T18:51:23.990Z,56.40
2018-06-02T18:53:50.376Z,56.20
2018-06-02T18:56:17.930Z,56.40
2018-06-02T18:58:44.736Z,56.70
2018-06-02T19:01:11.965Z,56.90
2018-06-02T19:03:38.843Z,56.90
2018-06-02T19:06:04.931Z,56.70
2018-06-02T19:08:31.491Z,56.60
2018-06-02T19:10:58.426Z,57.10
2018-06-02T19:13:25.238Z,57.50
2018-06-02T19:15:52.356Z,57.60
2018-06-02T19:18:19.207Z,58.00
2018-06-02T19:20:45.922Z,58.30
2018-06-02T19:23:12.725Z,58.20
2018-06-02T19:25:38.735Z,58.20
2018-06-02T19:28:05.880Z,58.40
2018-06-02T19:30:33.460Z,58.60
2018-06-02T19:33:01.062Z,58.80
2018-06-02T19:35:28.019Z,58.70
2018-06-02T19:37:55.374Z,59.10
2018-06-02T19:40:24.959Z,59.10
2018-06-02T19:42:52.085Z,58.90
2018-06-02T19:45:21.729Z,59.70
2018-06-02T19:47:51.545Z,60.00
2018-06-02T19:50:18.419Z,60.00
2018-06-02T19:52:47.020Z,60.40
2018-06-02T19:55:13.433Z,61.10
2018-06-02T19:57:44.179Z,60.20
2018-06-02T20:00:10.995Z,60.20
2018-06-02T20:02:37.950Z,60.50
2018-06-02T20:05:05.481Z,61.00
2018-06-02T20:07:33.050Z,61.10
2018-06-02T20:10:00.879Z,61.10
2018-06-02T20:12:27.778Z,61.30
2018-06-02T20:14:54.746Z,61.40
2018-06-02T20:17:21.580Z,61.90
2018-06-02T20:19:47.726Z,62.50
2018-06-02T20:22:14.507Z,62.30
2018-06-02T20:24:41.216Z,62.40
2018-06-02T20:27:07.969Z,62.70
2018-06-02T20:29:34.934Z,62.50
2018-06-02T20:32:01.280Z,62.50
2018-06-02T20:34:28.079Z,62.70
2018-06-02T20:36:54.627Z,62.90
2018-06-02T20:39:21.420Z,63.00
2018-06-02T20:41:47.781Z,63.80
2018-06-02T20:44:14.249Z,63.80
2018-06-02T20:46:41.344Z,63.50
2018-06-02T20:49:08.837Z,63.80
2018-06-02T20:51:34.814Z,63.70
2018-06-02T20:54:01.079Z,63.80
2018-06-02T20:56:28.659Z,64.60
2018-06-02T20:58:55.587Z,64.10
2018-06-02T21:01:22.594Z,64.40
2018-06-02T21:03:49.364Z,64.60
2018-06-02T21:06:15.342Z,64.70
2018-06-02T21:08:41.296Z,64.80
2018-06-02T21:11:07.812Z,64.80
2018-06-02T21:13:34.883Z,64.90
2018-06-02T21:16:02.387Z,64.80
2018-06-02T21:18:28.616Z,64.80
2018-06-02T21:20:55.392Z,65.20
2018-06-02T21:23:21.385Z,65.10
2018-06-02T21:25:48.472Z,65.30
2018-06-02T21:28:15.786Z,65.50
2018-06-02T21:30:42.513Z,65.50
2018-06-02T21:33:09.774Z,66.10
2018-06-02T21:35:37.023Z,66.10
2018-06-02T21:38:03.507Z,66.20
2018-06-02T21:40:30.050Z,66.10
2018-06-02T21:42:56.543Z,66.40
2018-06-02T21:45:23.817Z,66.70
2018-06-02T21:47:50.578Z,66.60
2018-06-02T21:50:18.127Z,66.90
2018-06-02T21:52:45.344Z,66.90
2018-06-02T21:55:12.920Z,67.10
2018-06-02T21:57:39.778Z,67.00
2018-06-02T22:00:05.784Z,67.20
2018-06-02T22:02:32.191Z,67.30
2018-06-02T22:04:59.751Z,67.10
2018-06-02T22:07:27.235Z,67.50
2018-06-02T22:09:53.482Z,67.70
2018-06-02T22:12:20.707Z,67.70
2018-06-02T22:14:47.066Z,67.80
2018-06-02T22:17:13.259Z,67.90
2018-06-02T22:19:40.095Z,68.30
2018-06-02T22:22:07.308Z,68.30
